Time;durP1;ratioP1;P1;durP2;ratioP2;P2;SDS_P1;SDS_P2;PMS_P1;PMS_P2;Temp;Humidity;BMP_temperature;BMP_pressure;BME280_temperature;BME280_humidity;BME280_pressure;Samples;Min_cycle;Max_cycle;Signal;HPM_P1;HPM_P2
2023/07/16 00:02:23;;;;;;;16.73;4.07;;;;;;;14.02;100.00;100805.75;4996895;28;20052;-70
2023/07/16 00:04:48;;;;;;;18.80;4.47;;;;;;;13.95;100.00;100812.06;5014325;28;20065;-70
2023/07/16 00:07:13;;;;;;;16.75;4.30;;;;;;;13.91;100.00;100805.88;5014366;28;20029;-70
2023/07/16 00:09:39;;;;;;;18.05;4.10;;;;;;;13.90;100.00;100811.19;5014277;28;20470;-70
2023/07/16 00:12:05;;;;;;;16.88;4.20;;;;;;;13.88;100.00;100802.38;5014062;28;20038;-64
2023/07/16 00:14:30;;;;;;;18.85;4.28;;;;;;;13.85;100.00;100807.69;5014004;28;20033;-69
2023/07/16 00:16:55;;;;;;;17.25;4.32;;;;;;;13.79;100.00;100803.34;5014229;28;20092;-68
2023/07/16 00:19:21;;;;;;;14.20;4.00;;;;;;;13.73;100.00;100811.34;5013926;28;20068;-69
2023/07/16 00:21:46;;;;;;;15.57;3.97;;;;;;;13.75;100.00;100812.25;5013671;28;20084;-69
2023/07/16 00:24:11;;;;;;;17.77;4.28;;;;;;;13.80;100.00;100818.38;5013577;28;20384;-66
2023/07/16 00:26:37;;;;;;;17.48;4.03;;;;;;;13.86;100.00;100813.03;5013767;28;20025;-66
2023/07/16 00:29:02;;;;;;;20.08;4.57;;;;;;;13.87;100.00;100812.09;5013742;28;20116;-69
2023/07/16 00:31:27;;;;;;;16.88;4.30;;;;;;;13.89;100.00;100810.34;5013918;28;20018;-67
2023/07/16 00:33:53;;;;;;;16.67;4.32;;;;;;;13.94;100.00;100813.81;5013674;28;20477;-67
2023/07/16 00:36:18;;;;;;;20.02;4.70;;;;;;;14.04;100.00;100813.72;5014087;28;20128;-69
2023/07/16 00:38:45;;;;;;;17.42;4.05;;;;;;;14.07;100.00;100803.06;5013672;28;20096;-69
2023/07/16 00:41:11;;;;;;;18.75;4.47;;;;;;;14.11;100.00;100812.75;5013595;28;20521;-69
2023/07/16 00:43:36;;;;;;;18.38;4.10;;;;;;;14.15;100.00;100809.16;5013700;28;20109;-64
2023/07/16 00:46:02;;;;;;;19.33;4.10;;;;;;;14.17;100.00;100812.69;5013437;28;20034;-68
2023/07/16 00:48:28;;;;;;;14.75;3.92;;;;;;;14.16;100.00;100804.75;5013436;28;20057;-69
2023/07/16 00:50:54;;;;;;;16.83;4.10;;;;;;;14.12;100.00;100801.22;5013865;28;20432;-65
2023/07/16 00:53:20;;;;;;;16.88;4.28;;;;;;;14.08;100.00;100800.38;5013378;28;20032;-69
2023/07/16 00:55:45;;;;;;;17.27;4.60;;;;;;;14.06;100.00;100806.63;5013338;28;20109;-68
2023/07/16 00:58:11;;;;;;;17.00;4.13;;;;;;;14.03;100.00;100804.00;5013609;28;20121;-69
2023/07/16 01:00:38;;;;;;;17.95;4.53;;;;;;;14.00;100.00;100807.56;5013248;28;20034;-69
2023/07/16 01:03:09;;;;;;;17.70;4.35;;;;;;;13.99;100.00;100808.44;5013153;28;20120;-66
2023/07/16 01:06:06;;;;;;;18.58;4.90;;;;;;;13.96;100.00;100811.13;5013375;28;20079;-65
2023/07/16 01:08:49;;;;;;;17.27;4.10;;;;;;;13.94;100.00;100812.94;5010044;28;20025;-64
2023/07/16 01:11:15;;;;;;;;;;;;;;;13.96;100.00;100811.13;5013548;28;20057;-68
2023/07/16 01:13:41;;;;;;;17.95;4.50;;;;;;;14.02;100.00;100815.50;5013450;28;20364;-67
2023/07/16 01:16:18;;;;;;;18.30;4.72;;;;;;;14.01;100.00;100809.31;5013067;28;20057;-69
2023/07/16 01:18:43;;;;;;;17.17;4.30;;;;;;;14.03;100.00;100807.50;5013088;28;20036;-67
2023/07/16 01:21:08;;;;;;;17.05;4.57;;;;;;;14.02;100.00;100805.75;5013174;28;20022;-65
2023/07/16 01:23:59;;;;;;;17.88;4.57;;;;;;;13.97;100.00;100802.28;5012792;28;20124;-66
2023/07/16 01:26:30;;;;;;;17.45;4.40;;;;;;;13.98;100.00;100805.81;5013110;28;20025;-68
2023/07/16 01:29:20;;;;;;;18.90;4.85;;;;;;;14.00;100.00;100807.56;5008956;28;20022;-67
2023/07/16 01:31:48;;;;;;;19.92;4.78;;;;;;;14.05;100.00;100800.44;5011573;28;20040;-68
2023/07/16 01:34:14;;;;;;;18.73;4.72;;;;;;;14.11;100.00;100810.97;5012702;28;20473;-68
2023/07/16 01:36:41;;;;;;;18.83;4.70;;;;;;;14.13;100.00;100803.84;5013031;28;20058;-69
2023/07/16 01:39:06;;;;;;;20.60;5.20;;;;;;;14.13;100.00;100800.34;5012611;28;20417;-68
2023/07/16 01:41:31;;;;;;;19.05;5.00;;;;;;;14.13;100.00;100797.69;5012806;28;20034;-69
2023/07/16 01:43:57;;;;;;;20.70;5.40;;;;;;;14.10;100.00;100803.91;5012886;28;20038;-68
2023/07/16 01:46:22;;;;;;;18.55;4.85;;;;;;;14.06;100.00;100807.47;5012699;28;20022;-69
2023/07/16 01:48:47;;;;;;;20.73;5.22;;;;;;;14.09;100.00;100819.88;5012825;28;20057;-68
2023/07/16 01:51:14;;;;;;;18.38;5.35;;;;;;;14.13;100.00;100814.50;5012869;28;20022;-68
2023/07/16 01:53:40;;;;;;;17.85;5.20;;;;;;;14.17;100.00;100825.09;5012690;28;20026;-67
2023/07/16 01:56:05;;;;;;;18.88;5.47;;;;;;;14.25;100.00;100818.78;4995242;28;20481;-68
2023/07/16 01:58:30;;;;;;;19.98;6.05;;;;;;;14.24;100.00;100818.81;5012843;28;20110;-62
2023/07/16 02:00:56;;;;;;;20.25;6.07;;;;;;;14.26;100.00;100815.25;5008511;28;20484;-63
2023/07/16 02:03:21;;;;;;;19.63;5.90;;;;;;;14.27;100.00;100814.34;5012686;28;20038;-65
2023/07/16 02:05:47;;;;;;;18.48;5.70;;;;;;;14.32;100.00;100819.63;5012436;28;20041;-64
2023/07/16 02:08:13;;;;;;;21.02;5.55;;;;;;;14.38;100.00;100823.97;5012595;28;20026;-69
2023/07/16 02:10:38;;;;;;;20.60;6.22;;;;;;;14.41;100.00;100816.84;5012932;28;20056;-69
2023/07/16 02:13:04;;;;;;;22.92;6.43;;;;;;;14.41;100.00;100824.81;5012463;28;20053;-63
2023/07/16 02:15:29;;;;;;;20.40;6.13;;;;;;;14.42;100.00;100826.59;5012490;28;20085;-67
2023/07/16 02:17:54;;;;;;;20.35;5.97;;;;;;;14.43;100.00;100828.34;5012879;28;20038;-69
2023/07/16 02:20:20;;;;;;;19.48;6.30;;;;;;;14.42;100.00;100833.69;5012666;28;20033;-68
2023/07/16 02:22:45;;;;;;;18.67;5.82;;;;;;;14.41;100.00;100835.44;5012403;28;20030;-68
2023/07/16 02:25:11;;;;;;;19.65;5.90;;;;;;;14.46;100.00;100835.41;5012733;28;20501;-69
2023/07/16 02:27:36;;;;;;;18.35;5.15;;;;;;;14.50;100.00;100836.25;5012466;28;20485;-68
2023/07/16 02:30:01;;;;;;;19.15;5.78;;;;;;;14.47;100.00;100837.16;5012282;28;20030;-62
2023/07/16 02:32:27;;;;;;;20.65;5.72;;;;;;;14.52;100.00;100843.31;5012527;28;20084;-68
2023/07/16 02:34:52;;;;;;;19.45;5.75;;;;;;;14.46;100.00;100843.41;5012274;28;20084;-69
2023/07/16 02:37:18;;;;;;;18.58;5.43;;;;;;;14.43;100.00;100838.09;5012115;28;20044;-65
2023/07/16 02:39:46;;;;;;;18.52;5.40;;;;;;;14.43;100.00;100851.38;4994640;28;20041;-67
2023/07/16 02:42:11;;;;;;;19.98;5.55;;;;;;;14.42;100.00;100845.19;5012248;28;20481;-67
2023/07/16 02:44:41;;;;;;;21.30;5.82;;;;;;;14.41;100.00;100846.09;5012276;28;20053;-69
2023/07/16 02:47:07;;;;;;;18.75;5.50;;;;;;;14.46;100.00;100849.59;5015100;28;20380;-68
2023/07/16 02:49:32;;;;;;;19.67;6.03;;;;;;;14.43;100.00;100854.03;5015638;28;20030;-66
2023/07/16 02:51:58;;;;;;;18.10;5.50;;;;;;;14.39;100.00;100847.91;5016073;28;20117;-67
2023/07/16 02:54:23;;;;;;;20.75;6.10;;;;;;;14.34;100.00;100838.22;5015988;28;20041;-61
2023/07/16 02:56:48;;;;;;;20.83;6.00;;;;;;;14.39;100.00;100844.38;5015510;28;20113;-67
2023/07/16 02:59:14;;;;;;;23.30;6.05;;;;;;;14.35;100.00;100845.28;5015698;28;20062;-70
2023/07/16 03:01:39;;;;;;;20.45;5.63;;;;;;;14.34;100.00;100843.53;5015686;28;20065;-69
2023/07/16 03:04:04;;;;;;;20.02;5.60;;;;;;;14.37;100.00;100851.47;5015313;28;20147;-69
2023/07/16 03:06:30;;;;;;;20.63;5.10;;;;;;;14.38;100.00;100850.56;4998098;28;20038;-70
2023/07/16 03:08:55;;;;;;;18.85;5.10;;;;;;;14.43;100.00;100849.63;5015298;28;20037;-70
2023/07/16 03:11:20;;;;;;;17.90;4.80;;;;;;;14.40;100.00;100838.13;5015214;28;20445;-69
2023/07/16 03:13:46;;;;;;;18.73;5.00;;;;;;;14.38;100.00;100835.50;5015420;28;20448;-69
2023/07/16 03:16:11;;;;;;;18.88;4.80;;;;;;;14.36;100.00;100842.63;5015224;28;20105;-70
2023/07/16 03:18:37;;;;;;;19.83;5.30;;;;;;;14.36;100.00;100842.63;5015095;28;20021;-67
2023/07/16 03:21:02;;;;;;;18.55;4.90;;;;;;;14.36;100.00;100845.28;5015239;28;20470;-69
2023/07/16 03:23:27;;;;;;;17.98;4.97;;;;;;;14.42;100.00;100839.00;5014994;28;20037;-70
2023/07/16 03:25:53;;;;;;;19.10;5.18;;;;;;;14.37;100.00;100830.19;5014983;28;20076;-64
2023/07/16 03:28:18;;;;;;;19.20;5.22;;;;;;;14.31;100.00;100833.78;5015072;28;20057;-69
2023/07/16 03:30:48;;;;;;;17.77;5.00;;;;;;;14.30;100.00;100827.59;5014881;28;20057;-70
2023/07/16 03:33:14;;;;;;;21.95;5.15;;;;;;;14.28;100.00;100831.19;5014866;28;20030;-69
2023/07/16 03:35:42;;;;;;;19.60;5.07;;;;;;;14.30;100.00;100830.28;5015009;28;20473;-70
2023/07/16 03:38:08;;;;;;;18.05;5.18;;;;;;;14.32;100.00;100829.38;5014669;28;20058;-70
2023/07/16 03:40:33;;;;;;;21.48;5.63;;;;;;;14.20;100.00;100830.38;5014965;28;20053;-70
2023/07/16 03:42:59;;;;;;;19.70;5.03;;;;;;;14.16;100.00;100834.84;5014783;28;20088;-70
2023/07/16 03:45:24;;;;;;;21.25;5.15;;;;;;;14.10;100.00;100835.78;5014613;28;20080;-68
2023/07/16 03:47:50;;;;;;;18.90;5.03;;;;;;;14.12;100.00;100838.44;5014807;28;20026;-70
2023/07/16 03:50:15;;;;;;;20.20;5.10;;;;;;;14.04;100.00;100835.88;5014415;28;20109;-70
2023/07/16 03:52:40;;;;;;;20.25;5.35;;;;;;;14.00;100.00;100843.88;5014676;28;20447;-70
2023/07/16 03:55:06;;;;;;;18.50;4.90;;;;;;;13.99;100.00;100844.78;5014609;28;20453;-70
2023/07/16 03:57:32;;;;;;;16.48;4.95;;;;;;;13.94;100.00;100847.47;5013352;28;20030;-69
2023/07/16 03:59:57;;;;;;;19.85;5.05;;;;;;;13.87;100.00;100857.28;5010571;28;20091;-66
2023/07/16 04:02:24;;;;;;;17.98;5.10;;;;;;;13.85;100.00;100852.88;5014472;28;20397;-66
2023/07/16 04:04:50;;;;;;;21.05;5.00;;;;;;;13.91;100.00;100850.19;5014179;28;20034;-68
2023/07/16 04:07:15;;;;;;;18.20;4.90;;;;;;;13.87;100.00;100854.63;4996803;28;20018;-62
2023/07/16 04:09:41;;;;;;;16.52;4.95;;;;;;;13.89;100.00;100850.19;5014392;28;20022;-66
2023/07/16 04:12:06;;;;;;;19.50;5.03;;;;;;;13.86;100.00;100867.91;5014146;28;20026;-69
2023/07/16 04:14:32;;;;;;;17.88;5.05;;;;;;;13.92;100.00;100875.81;5014152;28;20030;-69
2023/07/16 04:16:58;;;;;;;20.13;5.40;;;;;;;13.94;100.00;100861.63;5014313;28;20033;-68
2023/07/16 04:19:23;;;;;;;17.40;4.82;;;;;;;14.02;100.00;100871.31;5013985;28;20041;-64
2023/07/16 04:21:49;;;;;;;19.88;5.38;;;;;;;13.94;100.00;100879.38;5014180;28;20465;-61
2023/07/16 04:24:14;;;;;;;18.98;5.50;;;;;;;13.98;100.00;100877.56;5013967;28;20389;-68
2023/07/16 04:26:39;;;;;;;19.17;5.43;;;;;;;13.93;100.00;100886.44;5013738;28;20042;-69
2023/07/16 04:29:05;;;;;;;20.50;5.53;;;;;;;14.00;100.00;100881.09;5014099;28;20030;-65
2023/07/16 04:31:30;;;;;;;18.33;5.38;;;;;;;13.96;100.00;100888.19;4996186;28;20092;-68
2023/07/16 04:33:55;;;;;;;19.23;5.70;;;;;;;13.97;100.00;100892.63;5013735;28;20032;-69
2023/07/16 04:36:21;;;;;;;20.48;5.75;;;;;;;13.99;100.00;100889.97;5013899;28;20108;-61
2023/07/16 04:38:46;;;;;;;18.70;5.15;;;;;;;13.97;100.00;100900.59;5013403;28;20136;-68
2023/07/16 04:41:12;;;;;;;19.60;5.50;;;;;;;13.96;100.00;100901.50;5013562;28;20030;-69
2023/07/16 04:43:38;;;;;;;20.35;5.63;;;;;;;13.91;100.00;100904.19;5013678;28;20481;-61
2023/07/16 04:46:03;;;;;;;21.67;6.18;;;;;;;13.91;100.00;100904.19;5013535;28;20042;-67
2023/07/16 04:48:29;;;;;;;21.35;6.13;;;;;;;14.02;100.00;100905.88;5013517;28;20038;-67
2023/07/16 04:50:54;;;;;;;23.08;6.28;;;;;;;13.99;100.00;100911.22;5013606;28;20060;-62
2023/07/16 04:53:19;;;;;;;20.30;5.60;;;;;;;14.03;100.00;100918.28;5013371;28;20112;-67
2023/07/16 04:55:45;;;;;;;19.58;5.93;;;;;;;13.97;100.00;100908.56;5013321;28;20026;-66
2023/07/16 04:58:14;;;;;;;19.88;6.03;;;;;;;14.02;100.00;100921.81;5013543;28;20030;-66
2023/07/16 05:00:40;;;;;;;20.42;6.03;;;;;;;14.10;100.00;100919.97;5013306;28;20026;-68
2023/07/16 05:03:05;;;;;;;19.35;6.38;;;;;;;14.05;100.00;100919.13;5013140;28;20036;-65
2023/07/16 05:05:30;;;;;;;19.85;5.95;;;;;;;14.01;100.00;100915.63;5013453;28;20034;-67
2023/07/16 05:07:56;;;;;;;18.52;5.70;;;;;;;14.06;100.00;100920.91;5013068;28;20484;-66
2023/07/16 05:10:21;;;;;;;20.38;6.10;;;;;;;14.09;100.00;100923.53;5013055;28;20494;-67
2023/07/16 05:12:47;;;;;;;19.48;6.45;;;;;;;14.12;100.00;100923.50;5013153;28;20096;-65
2023/07/16 05:15:12;;;;;;;18.90;6.07;;;;;;;14.15;100.00;100910.16;5013066;28;20147;-66
2023/07/16 05:17:37;;;;;;;21.75;6.40;;;;;;;14.18;100.00;100919.91;5013364;28;20030;-68
2023/07/16 05:20:06;;;;;;;20.02;6.10;;;;;;;14.22;100.00;100914.53;5013055;28;20113;-65
2023/07/16 05:22:32;;;;;;;20.30;5.90;;;;;;;14.22;100.00;100929.63;5009465;28;20484;-67
2023/07/16 05:24:57;;;;;;;21.70;6.57;;;;;;;14.24;100.00;100922.50;5012996;28;20473;-66
2023/07/16 05:27:23;;;;;;;20.67;6.22;;;;;;;14.29;100.00;100929.53;5013243;28;20132;-66
2023/07/16 05:29:48;;;;;;;20.38;6.47;;;;;;;14.37;100.00;100921.50;5012915;28;20478;-68
2023/07/16 05:32:14;;;;;;;20.48;6.45;;;;;;;14.37;100.00;100929.47;5013090;28;20033;-67
2023/07/16 05:34:39;;;;;;;20.67;6.20;;;;;;;14.39;100.00;100926.81;5012895;28;20466;-61
2023/07/16 05:37:05;;;;;;;20.42;6.18;;;;;;;14.52;100.00;100925.78;5012782;28;20041;-68
2023/07/16 05:39:30;;;;;;;20.60;6.72;;;;;;;14.53;100.00;100924.84;5012816;28;20054;-68
2023/07/16 05:41:56;;;;;;;20.08;6.22;;;;;;;14.60;100.00;100925.69;5012782;28;20053;-68
2023/07/16 05:44:21;;;;;;;20.85;6.82;;;;;;;14.61;100.00;100936.34;5012735;28;20045;-67
2023/07/16 05:46:47;;;;;;;19.48;6.07;;;;;;;14.66;100.00;100940.72;5013144;28;20032;-67
2023/07/16 05:49:13;;;;;;;22.13;6.90;;;;;;;14.71;100.00;100936.22;5012574;28;20061;-68
2023/07/16 05:51:38;;;;;;;20.17;6.60;;;;;;;14.76;100.00;100939.72;5012775;28;20030;-67
2023/07/16 05:54:03;;;;;;;20.05;6.40;;;;;;;14.80;100.00;100938.81;5013052;28;20033;-66
2023/07/16 05:56:29;;;;;;;20.25;6.57;;;;;;;14.79;100.00;100947.66;5012676;28;20049;-69
2023/07/16 05:58:54;;;;;;;20.90;6.75;;;;;;;14.87;100.00;100948.47;5012857;28;20032;-61
2023/07/16 06:01:19;;;;;;;20.17;6.78;;;;;;;14.95;100.00;100954.56;5012527;28;20470;-60
2023/07/16 06:03:45;;;;;;;21.77;6.80;;;;;;;15.03;100.00;100961.59;5012536;28;20042;-62
2023/07/16 06:06:10;;;;;;;20.30;6.60;;;;;;;15.06;100.00;100964.22;4995318;28;20026;-68
2023/07/16 06:08:36;;;;;;;20.30;6.30;;;;;;;15.11;100.00;100970.38;5012590;28;20030;-68
2023/07/16 06:11:01;;;;;;;22.35;7.40;;;;;;;15.14;100.00;100973.00;5012527;28;20037;-61
2023/07/16 06:13:26;;;;;;;21.15;6.70;;;;;;;15.15;100.00;100957.00;5012863;28;20179;-68
2023/07/16 06:15:52;;;;;;;20.25;6.65;;;;;;;15.20;100.00;100967.56;5012478;28;20429;-69
2023/07/16 06:18:17;;;;;;;19.67;6.47;;;;;;;15.22;100.00;100963.13;5012444;28;20113;-61
2023/07/16 06:20:44;;;;;;;20.00;6.40;;;;;;;15.27;100.00;100965.72;5013465;28;20072;-61
2023/07/16 06:23:11;;;;;;;20.98;6.68;;;;;;;15.28;100.00;100965.72;5016106;28;20030;-61
2023/07/16 06:25:36;;;;;;;21.35;7.00;;;;;;;15.37;100.00;100966.50;5009307;28;20429;-65
2023/07/16 06:28:02;;;;;;;20.17;6.72;;;;;;;15.38;100.00;100970.91;5007675;28;20080;-64
2023/07/16 06:30:27;;;;;;;22.25;7.00;;;;;;;15.44;100.00;100974.38;5011306;28;20061;-62
2023/07/16 06:32:52;;;;;;;20.80;6.50;;;;;;;15.50;100.00;100962.75;5016089;28;20141;-61
2023/07/16 06:35:18;;;;;;;21.38;6.70;;;;;;;15.52;100.00;100976.91;5015769;28;20034;-64
2023/07/16 06:37:43;;;;;;;18.60;6.43;;;;;;;15.59;100.00;100975.06;5015533;28;20050;-66
2023/07/16 06:40:09;;;;;;;19.65;6.88;;;;;;;15.63;100.00;100971.44;4998194;28;20030;-65
2023/07/16 06:42:34;;;;;;;21.95;6.35;;;;;;;15.65;100.00;100986.53;5017212;28;20029;-68
2023/07/16 06:44:59;;;;;;;21.20;6.97;;;;;;;15.73;100.00;100991.72;5015595;28;20425;-67
2023/07/16 06:47:25;;;;;;;21.40;6.90;;;;;;;15.76;100.00;100990.81;5009880;28;20469;-61
2023/07/16 06:49:50;;;;;;;21.55;7.03;;;;;;;15.85;100.00;100990.69;5004374;28;20060;-64
2023/07/16 06:52:22;;;;;;;19.85;6.78;;;;;;;15.82;100.00;101001.41;5007652;28;20057;-67
2023/07/16 06:54:48;;;;;;;22.83;7.85;;;;;;;15.88;100.00;100995.13;5012254;28;20029;-67
2023/07/16 06:57:13;;;;;;;21.80;6.95;;;;;;;15.94;100.00;101006.53;5015400;28;20387;-65
2023/07/16 06:59:39;;;;;;;20.88;7.07;;;;;;;15.98;100.00;100988.72;5015279;28;20527;-63
2023/07/16 07:02:05;;;;;;;20.35;6.93;;;;;;;16.03;100.00;100994.84;5015632;28;20117;-67
2023/07/16 07:04:30;;;;;;;22.17;7.47;;;;;;;16.09;100.00;101015.22;5015362;28;20037;-67
2023/07/16 07:06:56;;;;;;;22.15;7.47;;;;;;;16.13;100.00;101000.94;5012393;28;20052;-69
2023/07/16 07:09:21;;;;;;;22.33;7.55;;;;;;;16.15;100.00;101015.09;4989934;28;20037;-70
2023/07/16 07:11:46;;;;;;;23.13;7.80;;;;;;;16.21;100.00;101023.91;5018571;28;20030;-67
2023/07/16 07:14:12;;;;;;;21.23;7.47;;;;;;;16.28;100.00;101024.69;5015051;28;20053;-65
2023/07/16 07:16:37;;;;;;;20.67;7.68;;;;;;;16.41;100.00;101033.38;5015460;28;20430;-68
2023/07/16 07:19:02;;;;;;;21.80;7.90;;;;;;;16.49;100.00;101019.91;5014915;28;20437;-68
2023/07/16 07:21:28;;;;;;;21.40;7.25;;;;;;;16.55;100.00;101030.47;5015331;28;20033;-68
2023/07/16 07:23:53;;;;;;;22.95;7.20;;;;;;;16.59;100.00;101023.28;5014618;28;20136;-66
2023/07/16 07:26:18;;;;;;;20.42;7.63;;;;;;;16.61;100.00;101051.69;5015054;28;20049;-69
2023/07/16 07:28:44;;;;;;;22.17;7.32;;;;;;;16.68;100.00;101037.31;5018814;28;20518;-71
2023/07/16 07:31:09;;;;;;;21.23;7.03;;;;;;;16.84;100.00;101026.38;5016459;28;20481;-71
2023/07/16 07:33:34;;;;;;;20.92;7.15;;;;;;;16.82;100.00;101038.88;5014533;28;20037;-70
2023/07/16 07:36:00;;;;;;;21.33;7.80;;;;;;;16.87;100.00;101031.66;5014665;28;20062;-68
2023/07/16 07:38:25;;;;;;;22.55;7.07;;;;;;;16.96;100.00;101031.50;5014356;28;20058;-67
2023/07/16 07:40:50;;;;;;;21.65;7.30;;;;;;;16.99;100.00;101031.44;5014584;28;20069;-69
2023/07/16 07:43:16;;;;;;;21.95;7.35;;;;;;;17.01;100.00;101028.78;4996969;28;20126;-65
2023/07/16 07:45:41;;;;;;;22.52;8.00;;;;;;;17.03;100.00;101034.97;4992813;28;20061;-67
2023/07/16 07:48:07;;;;;;;21.38;7.10;;;;;;;17.17;100.00;101045.34;5014397;28;20030;-65
2023/07/16 07:50:32;;;;;;;20.52;7.40;;;;;;;17.23;100.00;101045.25;5014640;28;20497;-65
2023/07/16 07:52:57;;;;;;;22.02;7.22;;;;;;;17.34;100.00;101037.88;5014476;28;20041;-66
2023/07/16 07:55:23;;;;;;;21.02;7.40;;;;;;;17.47;100.00;101062.56;5014412;28;20038;-67
2023/07/16 07:57:48;;;;;;;20.83;7.07;;;;;;;17.49;100.00;101044.72;5014411;28;20065;-64
2023/07/16 08:00:14;;;;;;;20.83;7.15;;;;;;;17.55;100.00;101043.69;5013903;28;20029;-61
2023/07/16 08:02:40;;;;;;;19.85;6.85;;;;;;;17.67;100.00;101032.72;5014496;28;20037;-66
2023/07/16 08:05:06;;;;;;;20.30;6.72;;;;;;;17.69;100.00;101041.63;5013974;28;20087;-67
2023/07/16 08:07:31;;;;;;;20.88;7.07;;;;;;;17.72;100.00;101040.63;5014140;28;20030;-64
2023/07/16 08:09:56;;;;;;;21.00;6.90;;;;;;;17.81;100.00;101043.13;5014452;28;20022;-66
2023/07/16 08:12:22;;;;;;;20.98;6.63;;;;;;;17.94;100.00;101039.28;5014074;28;20029;-67
2023/07/16 08:14:47;;;;;;;20.52;6.47;;;;;;;17.96;100.00;101055.28;5014068;28;20022;-67
2023/07/16 08:17:13;;;;;;;21.48;6.55;;;;;;;17.94;100.00;101051.78;5014252;28;20030;-65
2023/07/16 08:19:38;;;;;;;21.23;6.63;;;;;;;17.98;100.00;101056.13;5013775;28;20026;-64
2023/07/16 08:22:04;;;;;;;19.85;6.10;;;;;;;18.09;100.00;101040.72;5013912;28;20025;-67
2023/07/16 08:24:29;;;;;;;21.73;6.55;;;;;;;18.24;100.00;101052.84;5014106;28;20370;-63
2023/07/16 08:26:55;;;;;;;20.05;6.40;;;;;;;18.40;100.00;101039.97;5014144;28;20116;-66
2023/07/16 08:29:20;;;;;;;21.88;6.80;;;;;;;18.47;100.00;101048.72;5013836;28;20034;-62
2023/07/16 08:31:45;;;;;;;20.08;6.60;;;;;;;18.55;100.00;101048.50;5013837;28;20061;-63
2023/07/16 08:34:10;;;;;;;20.25;6.25;;;;;;;18.60;100.00;101044.81;4996254;28;20022;-67
2023/07/16 08:36:37;;;;;;;22.67;6.78;;;;;;;18.81;100.00;101045.16;5013787;28;20042;-64
2023/07/16 08:39:03;;;;;;;20.38;5.88;;;;;;;19.01;100.00;101039.31;5013770;28;20124;-66
2023/07/16 08:41:28;;;;;;;18.63;6.10;;;;;;;19.29;100.00;101055.47;5013680;28;20616;-67
2023/07/16 08:43:54;;;;;;;21.10;6.20;;;;;;;19.00;100.00;101067.00;5013034;28;20030;-65
2023/07/16 08:46:20;;;;;;;20.40;6.07;;;;;;;18.81;100.00;101042.47;5013563;28;20038;-65
2023/07/16 08:48:45;;;;;;;19.80;6.18;;;;;;;18.86;100.00;101043.28;5013401;28;20029;-65
2023/07/16 08:51:14;;;;;;;20.48;6.30;;;;;;;18.95;100.00;101058.22;5013678;28;20470;-67
2023/07/16 08:53:40;;;;;;;20.13;6.10;;;;;;;18.98;100.00;101082.25;5013451;28;20033;-67
2023/07/16 08:56:05;;;;;;;19.92;6.25;;;;;;;18.90;100.00;101062.81;5013355;28;20030;-64
2023/07/16 08:58:31;;;;;;;20.65;6.07;;;;;;;18.76;100.00;101071.19;4996179;28;20037;-67
2023/07/16 09:00:56;;;;;;;18.98;5.80;;;;;;;18.89;100.00;101067.31;5009241;28;20508;-65
2023/07/16 09:03:22;;;;;;;19.30;5.60;;;;;;;19.05;100.00;101075.81;5013179;28;20034;-68
2023/07/16 09:05:48;;;;;;;20.00;6.00;;;;;;;19.37;100.00;101082.06;5013406;28;20052;-64
2023/07/16 09:08:13;;;;;;;21.55;5.93;;;;;;;19.64;100.00;101096.47;5013232;28;20057;-66
2023/07/16 09:10:43;;;;;;;19.52;6.03;;;;;;;19.69;100.00;101080.25;5013134;28;20026;-62
2023/07/16 09:13:09;;;;;;;18.70;5.97;;;;;;;19.80;100.00;101085.31;5013127;28;20120;-62
2023/07/16 09:15:35;;;;;;;19.25;5.57;;;;;;;19.69;100.00;101081.13;5013088;28;20038;-62
2023/07/16 09:18:01;;;;;;;18.85;5.40;;;;;;;19.54;100.00;101086.06;5013107;28;20089;-62
2023/07/16 09:20:33;;;;;;;18.95;5.40;;;;;;;19.40;100.00;101081.97;5010887;28;20512;-66
2023/07/16 09:22:59;;;;;;;22.52;6.45;;;;;;;19.55;100.00;101082.47;5009352;28;20034;-66
2023/07/16 09:25:31;;;;;;;18.00;5.63;;;;;;;19.87;100.00;101084.19;5008872;28;20052;-63
2023/07/16 09:28:01;;;;;;;18.05;5.72;;;;;;;20.20;100.00;101086.75;5009561;28;20045;-62
2023/07/16 09:30:31;;;;;;;18.70;5.75;;;;;;;20.16;100.00;101079.72;5013012;28;20041;-64
2023/07/16 09:32:57;;;;;;;18.80;5.50;;;;;;;20.16;98.81;101085.09;5012879;28;20112;-67
2023/07/16 09:35:22;;;;;;;17.90;5.57;;;;;;;20.18;100.00;101061.75;5012859;28;20689;-63
2023/07/16 09:37:48;;;;;;;20.20;5.60;;;;;;;20.20;94.58;101109.09;5007201;28;20466;-62
2023/07/16 09:40:13;;;;;;;17.73;5.22;;;;;;;20.07;97.57;101091.63;4981994;28;20035;-67
2023/07/16 09:42:41;;;;;;;20.25;5.57;;;;;;;20.00;95.55;101087.38;4984777;28;20053;-63
2023/07/16 09:45:08;;;;;;;17.38;5.22;;;;;;;20.23;97.85;101091.13;4964278;28;20026;-65
2023/07/16 09:47:35;;;;;;;19.10;5.80;;;;;;;20.22;100.00;101092.09;4984405;28;20030;-62
2023/07/16 09:50:04;;;;;;;18.98;5.65;;;;;;;20.19;92.47;101126.13;4982555;28;20030;-63
2023/07/16 09:52:31;;;;;;;19.45;5.40;;;;;;;20.02;95.23;101109.66;4984314;28;20030;-65
2023/07/16 09:55:00;;;;;;;18.83;5.40;;;;;;;20.04;99.09;101105.16;4984197;28;20097;-65
2023/07/16 09:57:27;;;;;;;18.60;5.45;;;;;;;20.15;97.66;101107.50;4987491;28;20382;-62
2023/07/16 09:59:56;;;;;;;18.25;5.10;;;;;;;20.72;97.46;101122.66;4987731;28;20037;-62
2023/07/16 10:02:22;;;;;;;16.48;5.00;;;;;;;21.00;84.11;101110.06;4986735;28;20034;-61
2023/07/16 10:04:47;;;;;;;18.75;5.22;;;;;;;20.83;83.68;101108.88;4988025;28;20089;-66
2023/07/16 10:07:24;;;;;;;18.58;5.45;;;;;;;21.03;85.93;101115.38;4985757;28;20054;-65
2023/07/16 10:09:55;;;;;;;22.17;5.55;;;;;;;21.32;85.59;101118.81;4988106;28;20040;-62
2023/07/16 10:12:22;;;;;;;17.70;5.45;;;;;;;21.70;82.27;101122.81;4986631;28;20035;-62
2023/07/16 10:14:49;;;;;;;18.25;5.70;;;;;;;21.40;77.99;101141.78;4988070;28;20062;-66
2023/07/16 10:17:17;;;;;;;18.75;5.82;;;;;;;21.17;79.42;101142.66;4985859;28;20083;-67
2023/07/16 10:19:55;;;;;;;17.30;5.57;;;;;;;21.24;84.57;101133.41;4988829;28;20114;-67
2023/07/16 10:22:37;;;;;;;19.95;5.53;;;;;;;21.44;82.64;101137.19;4994339;28;20034;-65
2023/07/16 10:25:17;;;;;;;18.55;5.65;;;;;;;21.24;81.35;101140.59;4979087;28;20030;-67
2023/07/16 10:27:47;;;;;;;18.83;5.20;;;;;;;21.18;77.89;101149.75;4993409;28;20479;-66
2023/07/16 10:30:13;;;;;;;17.85;5.32;;;;;;;21.07;76.84;101158.22;4996636;28;20556;-66
2023/07/16 10:32:39;;;;;;;19.20;5.40;;;;;;;21.40;80.18;101143.63;4992622;28;20054;-63
2023/07/16 10:35:08;;;;;;;18.42;5.70;;;;;;;21.80;79.78;101147.56;4996392;28;20112;-66
2023/07/16 10:37:33;;;;;;;17.55;5.30;;;;;;;22.10;77.39;101150.88;4997786;28;20036;-68
2023/07/16 10:40:00;;;;;;;18.27;5.28;;;;;;;23.03;68.71;101144.44;5015961;28;20109;-68
2023/07/16 10:42:27;;;;;;;17.50;5.30;;;;;;;24.02;65.60;101135.53;5015814;28;20037;-68
2023/07/16 10:45:04;;;;;;;18.35;4.80;;;;;;;24.04;62.98;101172.38;5015961;28;20085;-68
2023/07/16 10:47:37;;;;;;;17.08;4.90;;;;;;;23.55;61.07;101141.28;5015901;28;20022;-68
2023/07/16 10:50:05;;;;;;;16.15;4.60;;;;;;;23.14;60.63;101144.03;5015901;28;20489;-68
2023/07/16 10:52:31;;;;;;;17.52;4.78;;;;;;;22.36;65.71;101158.91;5015854;28;20018;-68
2023/07/16 10:55:00;;;;;;;15.95;4.65;;;;;;;22.08;65.29;101163.53;5015755;28;20033;-68
2023/07/16 10:57:26;;;;;;;17.77;5.00;;;;;;;22.27;68.91;101166.38;5015554;28;20033;-68
2023/07/16 10:59:52;;;;;;;16.48;4.80;;;;;;;22.51;67.42;101160.97;5015639;28;20088;-68
2023/07/16 11:02:20;;;;;;;14.88;4.30;;;;;;;22.05;66.43;101163.66;5015885;28;20029;-68
2023/07/16 11:04:46;;;;;;;17.73;5.03;;;;;;;21.57;70.78;101160.06;5015187;28;20034;-68
2023/07/16 11:07:13;;;;;;;18.02;5.25;;;;;;;21.17;70.23;101187.44;5014880;28;20050;-68